Time;durP1;ratioP1;P1;durP2;ratioP2;P2;SDS_P1;SDS_P2;PMS_P1;PMS_P2;Temp;Humidity;BMP_temperature;BMP_pressure;BME280_temperature;BME280_humidity;BME280_pressure;Samples;Min_cycle;Max_cycle;Signal;HPM_P1;HPM_P2
2022/01/09 00:00:10;;;;;;;10.80;9.57;;;4.40;99.90;;;;;;5008875;28;20049;-61
2022/01/09 00:02:36;;;;;;;10.40;9.27;;;4.40;99.90;;;;;;5008842;28;20046;-62
2022/01/09 00:05:02;;;;;;;9.80;8.80;;;4.50;99.90;;;;;;5009009;28;20449;-61
2022/01/09 00:07:28;;;;;;;12.10;9.52;;;4.50;99.90;;;;;;5009371;28;20429;-61
2022/01/09 00:09:56;;;;;;;9.57;8.63;;;4.50;99.90;;;;;;5012542;28;20042;-61
2022/01/09 00:12:21;;;;;;;10.88;9.75;;;4.50;99.90;;;;;;5012467;28;20038;-61
2022/01/09 00:14:47;;;;;;;10.02;9.02;;;4.50;99.90;;;;;;5012346;28;20388;-61
2022/01/09 00:17:13;;;;;;;11.75;10.55;;;4.50;99.90;;;;;;5012085;28;20091;-61
2022/01/09 00:19:38;;;;;;;10.98;9.85;;;4.50;99.90;;;;;;5012363;28;20057;-61
2022/01/09 00:22:04;;;;;;;10.95;9.82;;;4.50;99.90;;;;;;5012183;28;20396;-61
2022/01/09 00:24:29;;;;;;;13.30;10.90;;;4.50;99.90;;;;;;5012228;28;20073;-61
2022/01/09 00:26:55;;;;;;;10.95;9.70;;;4.40;99.90;;;;;;5012254;28;20400;-61
2022/01/09 00:29:21;;;;;;;10.43;9.35;;;4.40;99.90;;;;;;5012182;28;20619;-61
2022/01/09 00:31:46;;;;;;;11.27;10.00;;;4.40;99.90;;;;;;5012071;28;20049;-61
2022/01/09 00:34:12;;;;;;;12.68;10.70;;;4.40;99.90;;;;;;5012185;28;20042;-61
2022/01/09 00:36:37;;;;;;;11.00;9.90;;;4.40;99.90;;;;;;5012129;28;20503;-61
2022/01/09 00:39:03;;;;;;;11.10;9.93;;;4.50;99.90;;;;;;5011705;28;20046;-61
2022/01/09 00:41:29;;;;;;;11.23;10.13;;;4.40;99.90;;;;;;5011826;28;20038;-61
2022/01/09 00:43:54;;;;;;;11.05;9.77;;;4.40;99.90;;;;;;5011808;28;20457;-61
2022/01/09 00:46:20;;;;;;;11.48;10.20;;;4.40;99.90;;;;;;5011788;28;20037;-61
2022/01/09 00:48:46;;;;;;;11.00;9.90;;;4.40;99.90;;;;;;5011957;28;20487;-61
2022/01/09 00:51:11;;;;;;;11.00;9.88;;;4.40;99.90;;;;;;5011749;28;20125;-61
2022/01/09 00:53:37;;;;;;;10.65;9.55;;;4.40;99.90;;;;;;5011807;28;20033;-60
2022/01/09 00:56:03;;;;;;;11.00;9.88;;;4.40;99.90;;;;;;5011535;28;20506;-60
2022/01/09 00:58:28;;;;;;;10.43;9.32;;;4.40;99.90;;;;;;5011574;28;20037;-61
2022/01/09 01:00:54;;;;;;;11.93;10.02;;;4.40;99.90;;;;;;5011386;28;20063;-61
2022/01/09 01:03:20;;;;;;;12.70;9.65;;;4.40;99.90;;;;;;5011775;28;20134;-61
2022/01/09 01:05:46;;;;;;;10.95;9.32;;;4.40;99.90;;;;;;5011669;28;20121;-61
2022/01/09 01:08:11;;;;;;;10.23;9.23;;;4.40;99.90;;;;;;5011740;28;20366;-61
2022/01/09 01:10:37;;;;;;;11.18;9.98;;;4.50;99.90;;;;;;5011325;28;20042;-61
2022/01/09 01:13:03;;;;;;;10.98;9.77;;;4.50;99.90;;;;;;5011389;28;20077;-61
2022/01/09 01:15:29;;;;;;;11.27;10.05;;;4.50;99.90;;;;;;5011253;28;20084;-61
2022/01/09 01:17:55;;;;;;;10.10;9.10;;;4.50;99.90;;;;;;5011411;28;20388;-61
2022/01/09 01:20:22;;;;;;;11.02;9.82;;;4.50;99.90;;;;;;5011341;28;20049;-61
2022/01/09 01:22:50;;;;;;;12.00;10.52;;;4.50;99.90;;;;;;5011351;28;20038;-61
2022/01/09 01:25:20;;;;;;;12.40;10.40;;;4.50;99.90;;;;;;5011247;28;20042;-61
2022/01/09 01:27:47;;;;;;;10.90;9.80;;;4.50;99.90;;;;;;5009984;28;20042;-61
2022/01/09 01:30:13;;;;;;;10.52;9.40;;;4.60;99.90;;;;;;5011089;28;20133;-61
2022/01/09 01:32:40;;;;;;;10.20;9.20;;;4.50;99.90;;;;;;5011281;28;20037;-61
2022/01/09 01:35:06;;;;;;;10.57;9.30;;;4.60;99.90;;;;;;5011197;28;20110;-61
2022/01/09 01:37:32;;;;;;;11.70;10.45;;;4.60;99.90;;;;;;5010867;28;20109;-61
2022/01/09 01:39:58;;;;;;;11.18;10.07;;;4.60;99.90;;;;;;5011081;28;20121;-61
2022/01/09 01:42:23;;;;;;;11.65;10.43;;;4.60;99.90;;;;;;5010793;28;20094;-61
2022/01/09 01:44:50;;;;;;;14.38;10.30;;;4.60;99.90;;;;;;5010811;28;20495;-61
2022/01/09 01:47:19;;;;;;;13.52;10.75;;;4.60;99.90;;;;;;5011116;28;20049;-61
2022/01/09 01:49:46;;;;;;;11.38;10.15;;;4.60;99.90;;;;;;5010981;28;20038;-61
2022/01/09 01:52:15;;;;;;;12.30;10.43;;;4.70;99.90;;;;;;5010952;28;20046;-61
2022/01/09 01:54:42;;;;;;;12.05;10.48;;;4.70;99.90;;;;;;5009730;28;20384;-61
2022/01/09 01:57:08;;;;;;;11.80;10.20;;;4.70;99.90;;;;;;5010647;28;20057;-61
2022/01/09 01:59:34;;;;;;;11.13;9.05;;;4.70;99.90;;;;;;5010931;28;20483;-62
2022/01/09 02:02:00;;;;;;;10.90;9.73;;;4.70;99.90;;;;;;5010795;28;20045;-62
2022/01/09 02:04:25;;;;;;;10.70;9.60;;;4.70;99.90;;;;;;5010772;28;20095;-61
2022/01/09 02:06:51;;;;;;;13.35;10.73;;;4.70;99.90;;;;;;5010694;28;20507;-61
2022/01/09 02:09:17;;;;;;;10.18;9.13;;;4.70;99.90;;;;;;5010662;28;20042;-61
2022/01/09 02:11:43;;;;;;;11.80;9.60;;;4.80;99.90;;;;;;5010409;28;20392;-61
2022/01/09 02:14:09;;;;;;;9.93;8.88;;;4.70;99.90;;;;;;5010510;28;20038;-61
2022/01/09 02:16:43;;;;;;;13.10;10.48;;;4.80;99.90;;;;;;5010628;28;20040;-61
2022/01/09 02:19:13;;;;;;;11.95;9.77;;;4.80;99.90;;;;;;5010358;28;20522;-61
2022/01/09 02:21:44;;;;;;;11.70;10.43;;;4.80;99.90;;;;;;5010329;28;20064;-61
2022/01/09 02:24:11;;;;;;;13.10;10.82;;;4.90;99.90;;;;;;5010470;28;20148;-61
2022/01/09 02:26:37;;;;;;;13.52;10.93;;;4.70;99.90;;;;;;5010575;28;20045;-61
2022/01/09 02:29:05;;;;;;;13.85;10.77;;;4.70;99.90;;;;;;5010513;28;20746;-61
2022/01/09 02:31:31;;;;;;;12.43;10.45;;;4.70;99.90;;;;;;5010231;28;20104;-62
2022/01/09 02:33:57;;;;;;;13.82;11.18;;;4.70;99.90;;;;;;5010539;28;20046;-62
2022/01/09 02:36:22;;;;;;;14.93;11.50;;;4.80;99.90;;;;;;5009980;28;20400;-61
2022/01/09 02:38:48;;;;;;;19.35;11.98;;;4.80;99.90;;;;;;5009883;28;20060;-62
2022/01/09 02:41:14;;;;;;;17.27;12.15;;;4.80;99.90;;;;;;5009921;28;20042;-61
2022/01/09 02:43:40;;;;;;;14.00;10.93;;;4.80;99.90;;;;;;5009998;28;20045;-61
2022/01/09 02:46:15;;;;;;;15.82;11.45;;;4.90;99.90;;;;;;5010004;28;20038;-62
2022/01/09 02:48:41;;;;;;;14.32;11.10;;;4.90;99.90;;;;;;5010005;28;20090;-61
2022/01/09 02:51:12;;;;;;;16.95;11.10;;;4.90;99.90;;;;;;5010174;28;20038;-62
2022/01/09 02:53:39;;;;;;;16.02;10.85;;;4.90;99.90;;;;;;5009698;28;20488;-62
2022/01/09 02:56:07;;;;;;;12.90;10.43;;;4.90;99.90;;;;;;5009967;28;20038;-61
2022/01/09 02:58:33;;;;;;;13.57;11.25;;;4.90;99.90;;;;;;5009931;28;20042;-62
2022/01/09 03:01:00;;;;;;;15.73;10.30;;;5.00;99.90;;;;;;5009847;28;20049;-62
2022/01/09 03:03:26;;;;;;;14.43;10.77;;;5.00;99.90;;;;;;5009770;28;20045;-62
2022/01/09 03:05:51;;;;;;;17.10;10.02;;;5.00;99.90;;;;;;5009559;28;20551;-62
2022/01/09 03:08:17;;;;;;;14.60;9.88;;;5.00;99.90;;;;;;5009606;28;20120;-61
2022/01/09 03:10:43;;;;;;;17.40;10.27;;;5.10;99.90;;;;;;5009655;28;20538;-61
2022/01/09 03:13:09;;;;;;;25.85;10.93;;;5.10;99.90;;;;;;5009914;28;20038;-62
2022/01/09 03:15:35;;;;;;;19.17;10.07;;;5.10;99.90;;;;;;5009816;28;20046;-61
2022/01/09 03:18:01;;;;;;;20.50;9.68;;;5.20;99.90;;;;;;5009600;28;20038;-61
2022/01/09 03:20:28;;;;;;;19.50;9.30;;;5.20;99.90;;;;;;5009373;28;20048;-62
2022/01/09 03:22:55;;;;;;;18.50;8.38;;;5.20;99.90;;;;;;5007833;28;20050;-62
2022/01/09 03:25:25;;;;;;;26.05;9.07;;;5.20;99.90;;;;;;5009365;28;20121;-62
2022/01/09 03:27:52;;;;;;;24.20;8.15;;;5.20;99.90;;;;;;5009666;28;20490;-62
2022/01/09 03:30:20;;;;;;;25.58;8.43;;;5.20;99.90;;;;;;5009623;28;20046;-62
2022/01/09 03:32:46;;;;;;;20.42;7.20;;;5.30;99.90;;;;;;5009601;28;20103;-61
2022/01/09 03:35:14;;;;;;;23.08;5.68;;;5.30;99.90;;;;;;5009501;28;20385;-61
2022/01/09 03:37:42;;;;;;;36.47;5.68;;;5.30;99.90;;;;;;5009427;28;20186;-62
2022/01/09 03:40:10;;;;;;;30.25;5.45;;;5.40;99.90;;;;;;5009328;28;20085;-61
2022/01/09 03:42:36;;;;;;;37.78;5.13;;;5.40;99.90;;;;;;5008163;28;20050;-61
2022/01/09 03:45:03;;;;;;;39.28;6.80;;;5.50;99.90;;;;;;5009260;28;20041;-61
2022/01/09 03:47:28;;;;;;;43.80;5.68;;;5.60;99.90;;;;;;5009305;28;20405;-61
2022/01/09 03:49:54;;;;;;;50.42;6.15;;;5.60;99.90;;;;;;5009628;28;20084;-62
2022/01/09 03:52:25;;;;;;;60.45;6.50;;;5.70;99.90;;;;;;5009254;28;20205;-62
2022/01/09 03:54:51;;;;;;;51.10;6.70;;;5.70;99.90;;;;;;5009035;28;20506;-61
2022/01/09 03:57:16;;;;;;;66.38;8.20;;;5.80;99.90;;;;;;5009045;28;20034;-61
2022/01/09 03:59:42;;;;;;;58.15;7.50;;;5.80;99.90;;;;;;5009169;28;20049;-61
2022/01/09 04:02:08;;;;;;;51.15;6.97;;;5.80;99.90;;;;;;5008864;28;20082;-61
2022/01/09 04:04:33;;;;;;;54.28;6.85;;;5.90;99.90;;;;;;5009126;28;20038;-61
2022/01/09 04:06:59;;;;;;;55.60;8.50;;;5.80;99.90;;;;;;5008949;28;20479;-61
2022/01/09 04:09:38;;;;;;;43.28;7.55;;;5.90;99.90;;;;;;5008896;28;20034;-62
2022/01/09 04:12:14;;;;;;;45.35;6.47;;;5.90;99.90;;;;;;5007900;28;20042;-61
2022/01/09 04:14:41;;;;;;;36.95;5.82;;;5.90;99.90;;;;;;5008751;28;20121;-61
2022/01/09 04:17:12;;;;;;;40.22;6.13;;;6.00;99.90;;;;;;5008969;28;20052;-60
2022/01/09 04:19:38;;;;;;;43.35;5.95;;;6.00;99.90;;;;;;5009039;28;20050;-61
2022/01/09 04:22:03;;;;;;;38.72;6.03;;;6.00;99.90;;;;;;5008760;28;20483;-60
2022/01/09 04:24:29;;;;;;;41.08;5.47;;;6.00;99.90;;;;;;5008716;28;20403;-61
2022/01/09 04:26:55;;;;;;;42.35;6.25;;;6.00;99.90;;;;;;5007404;28;20099;-61
2022/01/09 04:29:20;;;;;;;44.33;5.53;;;6.00;99.90;;;;;;5008504;28;20034;-61
2022/01/09 04:31:46;;;;;;;51.58;6.45;;;6.00;99.90;;;;;;5007415;28;20125;-61
2022/01/09 04:34:12;;;;;;;35.58;5.47;;;6.00;99.90;;;;;;5008560;28;20038;-61
2022/01/09 04:36:37;;;;;;;43.55;6.25;;;6.00;99.90;;;;;;5008606;28;20507;-61
2022/01/09 04:39:03;;;;;;;36.67;5.95;;;6.00;99.90;;;;;;5008336;28;20050;-61
2022/01/09 04:41:29;;;;;;;38.00;5.93;;;6.00;99.90;;;;;;5008429;28;20411;-61
2022/01/09 04:43:55;;;;;;;41.05;5.72;;;6.00;99.90;;;;;;5008258;28;20102;-61
2022/01/09 04:46:31;;;;;;;35.10;5.72;;;6.00;99.90;;;;;;5008387;28;20049;-61
2022/01/09 04:48:57;;;;;;;41.63;5.15;;;5.90;99.90;;;;;;5008343;28;20073;-61
2022/01/09 04:51:23;;;;;;;39.45;5.18;;;6.00;99.90;;;;;;5008416;28;20077;-61
2022/01/09 04:53:48;;;;;;;41.95;5.18;;;6.00;99.90;;;;;;5010502;28;20129;-62
2022/01/09 04:56:14;;;;;;;45.75;5.53;;;5.90;99.90;;;;;;5011639;28;20041;-61
2022/01/09 04:58:40;;;;;;;37.00;5.65;;;6.00;99.90;;;;;;5011449;28;20034;-61
2022/01/09 05:01:06;;;;;;;31.85;4.20;;;6.00;99.90;;;;;;5011452;28;20041;-61
2022/01/09 05:03:32;;;;;;;31.30;5.80;;;6.00;99.90;;;;;;5011709;28;20113;-61
2022/01/09 05:05:57;;;;;;;29.88;4.60;;;6.00;99.90;;;;;;5011550;28;20369;-61
2022/01/09 05:08:23;;;;;;;29.85;5.22;;;6.00;99.90;;;;;;5011544;28;20034;-61
2022/01/09 05:10:48;;;;;;;36.22;6.50;;;6.00;99.90;;;;;;5011352;28;20069;-61
2022/01/09 05:13:14;;;;;;;38.50;5.28;;;6.00;99.90;;;;;;5011425;28;20044;-61
2022/01/09 05:15:40;;;;;;;39.20;4.93;;;6.00;99.90;;;;;;5011639;28;20071;-61
2022/01/09 05:18:12;;;;;;;42.45;5.20;;;5.90;99.90;;;;;;5011751;28;20081;-61
2022/01/09 05:20:38;;;;;;;34.38;4.47;;;6.00;99.90;;;;;;5011292;28;20046;-61
2022/01/09 05:23:03;;;;;;;31.08;3.92;;;6.00;99.90;;;;;;5011515;28;20042;-61
2022/01/09 05:25:29;;;;;;;32.80;4.25;;;6.00;99.90;;;;;;5011150;28;20400;-61
2022/01/09 05:27:55;;;;;;;34.25;5.18;;;6.00;99.90;;;;;;5011576;28;20034;-62
2022/01/09 05:30:20;;;;;;;40.55;5.65;;;6.00;99.90;;;;;;5011940;28;20046;-61
2022/01/09 05:32:46;;;;;;;35.67;4.72;;;5.90;99.90;;;;;;5010965;28;20041;-61
2022/01/09 05:35:11;;;;;;;34.88;4.75;;;5.90;99.90;;;;;;5011093;28;20080;-61
2022/01/09 05:37:37;;;;;;;38.67;5.13;;;5.90;99.90;;;;;;5010903;28;20389;-61
2022/01/09 05:40:03;;;;;;;32.28;4.13;;;5.90;99.90;;;;;;5009825;28;20495;-61
2022/01/09 05:42:29;;;;;;;27.35;4.25;;;5.90;99.90;;;;;;5010984;28;20551;-61
2022/01/09 05:44:55;;;;;;;31.88;4.53;;;5.90;99.90;;;;;;5011113;28;20065;-61
2022/01/09 05:47:20;;;;;;;24.58;4.63;;;5.90;99.90;;;;;;5010884;28;20042;-61
2022/01/09 05:49:46;;;;;;;32.40;5.13;;;5.90;99.90;;;;;;5011013;28;20083;-61
2022/01/09 05:52:11;;;;;;;33.30;4.70;;;5.90;99.90;;;;;;5010887;28;20130;-61
2022/01/09 05:54:37;;;;;;;32.28;4.82;;;5.90;99.90;;;;;;5010816;28;20463;-61
2022/01/09 05:57:03;;;;;;;37.67;5.63;;;5.90;99.90;;;;;;5010882;28;20037;-60
2022/01/09 05:59:29;;;;;;;36.80;4.97;;;5.80;99.90;;;;;;5010936;28;20040;-61
2022/01/09 06:01:56;;;;;;;31.45;4.32;;;5.80;99.90;;;;;;5010743;28;20042;-61
2022/01/09 06:04:23;;;;;;;27.80;4.05;;;5.80;99.90;;;;;;5009839;28;20042;-61
2022/01/09 06:06:49;;;;;;;23.15;3.95;;;5.80;99.90;;;;;;5010699;28;20048;-61
2022/01/09 06:09:15;;;;;;;20.40;4.05;;;5.80;99.90;;;;;;5010443;28;20042;-61
2022/01/09 06:11:41;;;;;;;24.05;3.92;;;5.80;99.90;;;;;;5010776;28;20046;-60
2022/01/09 06:14:07;;;;;;;27.80;4.90;;;5.80;99.90;;;;;;5010701;28;20053;-61
2022/01/09 06:16:33;;;;;;;25.98;4.18;;;5.80;99.90;;;;;;5010939;28;20049;-61
2022/01/09 06:18:58;;;;;;;24.92;3.80;;;5.80;99.90;;;;;;5010535;28;20046;-61
2022/01/09 06:21:26;;;;;;;30.80;3.67;;;5.80;99.90;;;;;;5010199;28;20392;-61
2022/01/09 06:23:52;;;;;;;32.63;4.63;;;5.80;99.90;;;;;;5010353;28;20038;-61
2022/01/09 06:26:18;;;;;;;24.15;4.10;;;5.80;99.90;;;;;;5010533;28;20043;-61
2022/01/09 06:28:43;;;;;;;26.25;3.83;;;5.80;99.90;;;;;;5010472;28;20393;-61
2022/01/09 06:31:09;;;;;;;22.98;3.97;;;5.70;99.90;;;;;;5010401;28;20479;-61
2022/01/09 06:33:35;;;;;;;32.92;4.28;;;5.70;99.90;;;;;;5008868;28;20045;-61
2022/01/09 06:36:00;;;;;;;30.17;3.65;;;5.80;99.90;;;;;;5010162;28;20049;-60
2022/01/09 06:38:26;;;;;;;30.88;5.38;;;5.80;99.90;;;;;;5009890;28;20062;-61
2022/01/09 06:40:52;;;;;;;28.60;3.60;;;5.80;99.90;;;;;;5010160;28;20054;-61
2022/01/09 06:43:17;;;;;;;31.67;6.10;;;5.70;99.90;;;;;;5010154;28;20138;-61
2022/01/09 06:45:43;;;;;;;19.67;3.85;;;5.70;99.90;;;;;;5009932;28;20399;-61
2022/01/09 06:48:09;;;;;;;20.98;3.53;;;5.80;99.90;;;;;;5010104;28;20033;-61
2022/01/09 06:50:35;;;;;;;24.25;3.53;;;5.80;99.90;;;;;;5009929;28;20045;-61
2022/01/09 06:53:01;;;;;;;23.85;3.70;;;5.70;99.90;;;;;;5009643;28;20034;-61
2022/01/09 06:55:26;;;;;;;19.00;3.75;;;5.80;99.90;;;;;;5010053;28;20034;-61
2022/01/09 06:57:53;;;;;;;19.33;2.70;;;5.70;99.90;;;;;;5009945;28;20034;-61
2022/01/09 07:00:20;;;;;;;23.08;3.78;;;5.80;99.90;;;;;;5010043;28;20046;-61
2022/01/09 07:02:46;;;;;;;23.67;4.18;;;5.70;99.90;;;;;;5009895;28;20049;-61
2022/01/09 07:05:13;;;;;;;18.85;3.45;;;5.60;99.90;;;;;;5010011;28;20046;-61
2022/01/09 07:07:38;;;;;;;20.75;3.40;;;5.60;99.90;;;;;;5009710;28;20555;-61
2022/01/09 07:10:05;;;;;;;18.00;3.42;;;5.60;99.90;;;;;;5010200;28;20045;-61
2022/01/09 07:12:31;;;;;;;16.45;4.15;;;5.60;99.90;;;;;;5009546;28;20045;-61
2022/01/09 07:14:56;;;;;;;22.38;2.85;;;5.60;99.90;;;;;;5009756;28;20046;-61
2022/01/09 07:17:22;;;;;;;20.27;3.45;;;5.60;99.90;;;;;;5009448;28;20121;-61
2022/01/09 07:19:48;;;;;;;24.30;4.18;;;5.70;99.90;;;;;;5009598;28;20041;-61
2022/01/09 07:22:13;;;;;;;17.25;3.08;;;5.60;99.90;;;;;;5009354;28;20045;-61
2022/01/09 07:24:39;;;;;;;18.30;3.70;;;5.60;99.90;;;;;;5009699;28;20042;-61
2022/01/09 07:27:05;;;;;;;18.98;2.90;;;5.60;99.90;;;;;;5009548;28;20034;-61
2022/01/09 07:29:31;;;;;;;18.23;3.00;;;5.60;99.90;;;;;;5007671;28;20400;-61
2022/01/09 07:31:56;;;;;;;23.65;3.53;;;5.50;99.90;;;;;;5009741;28;20084;-60
2022/01/09 07:34:22;;;;;;;32.15;4.15;;;5.50;99.90;;;;;;5009332;28;20065;-61
2022/01/09 07:36:48;;;;;;;19.40;3.17;;;5.50;99.90;;;;;;5009289;28;20558;-61
2022/01/09 07:39:14;;;;;;;14.55;3.08;;;5.50;99.90;;;;;;5009154;28;20065;-61
2022/01/09 07:41:40;;;;;;;19.90;3.05;;;5.50;99.90;;;;;;5009233;28;20480;-61
2022/01/09 07:44:06;;;;;;;23.73;3.10;;;5.50;99.90;;;;;;5009298;28;20042;-61
2022/01/09 07:46:32;;;;;;;26.83;3.47;;;5.50;99.90;;;;;;5009275;28;20083;-62
2022/01/09 07:48:57;;;;;;;17.80;3.17;;;5.40;99.90;;;;;;5009361;28;20049;-61
2022/01/09 07:51:23;;;;;;;26.10;3.08;;;5.40;99.90;;;;;;5009298;28;20559;-61
2022/01/09 07:53:49;;;;;;;21.08;2.90;;;5.40;99.90;;;;;;5008938;28;20124;-61
2022/01/09 07:56:14;;;;;;;20.38;3.30;;;5.40;99.90;;;;;;5009160;28;20038;-61
2022/01/09 07:58:40;;;;;;;20.10;3.00;;;5.40;99.90;;;;;;5009116;28;20038;-61
2022/01/09 08:01:06;;;;;;;12.43;2.60;;;5.40;99.90;;;;;;5008976;28;20073;-61
2022/01/09 08:03:32;;;;;;;25.13;3.75;;;5.40;99.90;;;;;;5008952;28;20038;-61
2022/01/09 08:05:57;;;;;;;26.75;3.40;;;5.30;99.90;;;;;;5008874;28;20387;-62
2022/01/09 08:08:23;;;;;;;18.13;3.38;;;5.30;99.90;;;;;;5009043;28;20038;-62
2022/01/09 08:10:48;;;;;;;22.40;3.05;;;5.30;99.90;;;;;;5008979;28;20434;-62
2022/01/09 08:13:14;;;;;;;19.95;2.80;;;5.20;99.90;;;;;;5008781;28;20121;-62
2022/01/09 08:15:40;;;;;;;20.25;3.25;;;5.30;99.90;;;;;;5008935;28;20091;-62
2022/01/09 08:18:06;;;;;;;13.43;2.78;;;5.30;99.90;;;;;;5008831;28;20407;-62
2022/01/09 08:20:32;;;;;;;17.83;2.90;;;5.20;99.90;;;;;;5008693;28;20034;-62
2022/01/09 08:22:58;;;;;;;21.17;2.83;;;5.20;99.90;;;;;;5008836;28;20042;-62
2022/01/09 08:25:23;;;;;;;23.40;3.08;;;5.20;99.90;;;;;;5008835;28;20361;-62
2022/01/09 08:27:50;;;;;;;16.52;2.47;;;5.20;99.90;;;;;;5009586;28;20038;-62
2022/01/09 08:30:18;;;;;;;20.10;2.60;;;5.20;99.90;;;;;;5012347;28;20048;-62
2022/01/09 08:32:44;;;;;;;14.00;2.10;;;5.20;99.90;;;;;;5012168;28;20041;-62
2022/01/09 08:35:10;;;;;;;18.67;3.35;;;5.20;99.90;;;;;;5012186;28;20506;-62
2022/01/09 08:37:36;;;;;;;16.02;3.58;;;5.20;99.90;;;;;;5012142;28;20074;-62
2022/01/09 08:40:03;;;;;;;13.32;1.85;;;5.20;99.90;;;;;;5012421;28;20046;-62
2022/01/09 08:42:29;;;;;;;15.23;2.53;;;5.20;99.90;;;;;;5011924;28;20499;-62
2022/01/09 08:44:54;;;;;;;22.95;2.95;;;5.20;99.90;;;;;;5011917;28;20034;-61
2022/01/09 08:47:22;;;;;;;15.48;3.15;;;5.20;99.90;;;;;;5011875;28;20091;-61
2022/01/09 08:49:47;;;;;;;13.00;2.50;;;5.30;99.90;;;;;;5011706;28;20484;-62
2022/01/09 08:52:13;;;;;;;17.92;3.28;;;5.20;99.90;;;;;;5011959;28;20049;-62
2022/01/09 08:54:38;;;;;;;16.92;3.03;;;5.30;99.90;;;;;;5011818;28;20052;-62
2022/01/09 08:57:04;;;;;;;13.00;2.78;;;5.30;99.90;;;;;;5011737;28;20049;-62
2022/01/09 08:59:30;;;;;;;15.93;2.13;;;5.30;99.90;;;;;;5011611;28;20442;-61
2022/01/09 09:01:56;;;;;;;22.02;2.80;;;5.30;99.90;;;;;;5010344;28;20091;-61
2022/01/09 09:04:22;;;;;;;15.45;2.33;;;5.30;99.90;;;;;;5011502;28;20113;-61
2022/01/09 09:06:48;;;;;;;18.13;2.85;;;5.30;99.90;;;;;;5011899;28;20417;-62
2022/01/09 09:09:13;;;;;;;15.23;3.00;;;5.40;99.90;;;;;;5011574;28;20442;-62
2022/01/09 09:11:40;;;;;;;16.52;3.22;;;5.40;99.90;;;;;;5011551;28;20037;-61
2022/01/09 09:14:05;;;;;;;16.33;2.83;;;5.40;99.90;;;;;;5011334;28;20038;-62
2022/01/09 09:16:32;;;;;;;24.42;3.38;;;5.50;99.90;;;;;;5011376;28;20102;-62
2022/01/09 09:18:58;;;;;;;23.10;3.05;;;5.50;99.90;;;;;;5010052;28;20034;-62
2022/01/09 09:21:23;;;;;;;17.05;2.85;;;5.50;99.90;;;;;;5011477;28;20548;-62
2022/01/09 09:23:49;;;;;;;18.95;3.20;;;5.50;99.90;;;;;;5011484;28;20041;-62
2022/01/09 09:26:16;;;;;;;12.48;2.35;;;5.50;99.90;;;;;;5011596;28;20076;-61
2022/01/09 09:28:42;;;;;;;21.83;2.65;;;5.60;99.90;;;;;;5011500;28;20042;-61
2022/01/09 09:31:09;;;;;;;15.27;2.05;;;5.60;99.90;;;;;;5011482;28;20037;-62
2022/01/09 09:33:35;;;;;;;22.30;2.95;;;5.60;99.90;;;;;;5011241;28;20069;-62
2022/01/09 09:36:02;;;;;;;16.20;2.03;;;5.60;99.90;;;;;;5011196;28;20045;-61
2022/01/09 09:38:29;;;;;;;16.45;3.05;;;5.60;99.90;;;;;;5010917;28;20092;-61
2022/01/09 09:40:55;;;;;;;15.30;2.80;;;5.60;99.90;;;;;;5009834;28;20126;-62
2022/01/09 09:43:21;;;;;;;14.65;2.40;;;5.70;99.90;;;;;;5010906;28;20048;-62
2022/01/09 09:45:47;;;;;;;15.68;2.38;;;5.60;99.90;;;;;;5010861;28;20030;-61
2022/01/09 09:48:12;;;;;;;12.40;2.70;;;5.60;99.90;;;;;;5009710;28;20058;-61
2022/01/09 09:50:38;;;;;;;18.02;2.40;;;5.60;99.90;;;;;;5011017;28;20049;-62
2022/01/09 09:53:05;;;;;;;17.70;2.25;;;5.60;99.90;;;;;;5011039;28;20391;-62
2022/01/09 09:55:30;;;;;;;10.80;1.85;;;5.70;99.90;;;;;;5010864;28;20034;-61
2022/01/09 09:57:57;;;;;;;17.55;2.47;;;5.70;99.90;;;;;;5010698;28;20049;-62
2022/01/09 10:00:23;;;;;;;15.75;2.85;;;5.70;99.90;;;;;;5010669;28;20069;-62
2022/01/09 10:02:55;;;;;;;15.07;2.30;;;5.70;99.90;;;;;;5010614;28;20041;-61
2022/01/09 10:05:23;;;;;;;10.52;2.05;;;5.70;99.90;;;;;;5010829;28;20038;-62
2022/01/09 10:07:52;;;;;;;10.73;2.22;;;5.70;99.90;;;;;;5010690;28;20045;-61
2022/01/09 10:10:20;;;;;;;15.70;2.63;;;5.70;99.90;;;;;;5009433;28;20476;-61
2022/01/09 10:12:47;;;;;;;7.97;1.88;;;5.70;99.90;;;;;;5010627;28;20234;-62
2022/01/09 10:15:19;;;;;;;20.63;2.47;;;5.70;99.90;;;;;;5010550;28;20037;-62
2022/01/09 10:17:50;;;;;;;10.35;2.05;;;5.80;99.90;;;;;;5010483;28;20507;-62
2022/01/09 10:20:25;;;;;;;12.88;1.90;;;5.80;99.90;;;;;;5010510;28;20050;-62
2022/01/09 10:22:55;;;;;;;14.15;2.25;;;5.80;99.90;;;;;;5010606;28;20045;-62
2022/01/09 10:25:21;;;;;;;9.25;1.98;;;5.80;99.90;;;;;;5010395;28;20038;-61
2022/01/09 10:27:54;;;;;;;14.52;3.08;;;5.90;99.90;;;;;;5010320;28;20052;-62
2022/01/09 10:30:24;;;;;;;20.27;2.35;;;5.90;99.90;;;;;;5010374;28;20117;-62
2022/01/09 10:32:55;;;;;;;11.13;1.95;;;5.90;99.90;;;;;;5010247;28;20082;-62
2022/01/09 10:35:21;;;;;;;13.95;2.00;;;5.90;99.90;;;;;;5010234;28;20073;-62
2022/01/09 10:37:50;;;;;;;11.85;2.25;;;5.90;99.90;;;;;;5009896;28;20062;-61
2022/01/09 10:40:28;;;;;;;9.90;1.88;;;5.90;99.90;;;;;;5010077;28;20053;-61
2022/01/09 10:43:32;;;;;;;8.70;2.40;;;5.90;99.90;;;;;;5010388;28;20407;-62
2022/01/09 10:46:00;;;;;;;9.45;1.90;;;6.00;99.90;;;;;;5010081;28;20438;-62
2022/01/09 10:48:32;;;;;;;12.85;2.60;;;6.00;99.90;;;;;;5009929;28;20042;-62
2022/01/09 10:50:59;;;;;;;12.20;2.63;;;6.00;99.90;;;;;;5009820;28;20056;-61
2022/01/09 10:53:30;;;;;;;9.60;1.77;;;6.00;99.90;;;;;;5010060;28;20492;-62
2022/01/09 10:56:15;;;;;;;11.07;2.53;;;6.00;99.90;;;;;;5009844;28;20079;-62
2022/01/09 10:58:47;;;;;;;13.50;2.08;;;6.00;99.90;;;;;;5009851;28;20038;-62
2022/01/09 11:01:15;;;;;;;20.73;2.30;;;6.00;99.90;;;;;;5009769;28;20522;-62
2022/01/09 11:03:47;;;;;;;11.10;2.92;;;6.10;99.90;;;;;;5009916;28;20049;-61
2022/01/09 11:06:13;;;;;;;12.55;2.97;;;6.10;99.90;;;;;;5009936;28;20045;-61
2022/01/09 11:08:40;;;;;;;15.43;2.38;;;6.10;99.90;;;;;;5009459;28;20491;-61
2022/01/09 11:11:09;;;;;;;10.95;2.20;;;6.20;99.90;;;;;;5009736;28;20053;-62
2022/01/09 11:13:36;;;;;;;;;;;6.20;99.90;;;;;;5010038;28;20042;-61
2022/01/09 11:18:47;;;;;;;16.95;2.65;;;6.20;99.90;;;;;;5009445;28;20491;-61
2022/01/09 11:21:13;;;;;;;7.38;1.65;;;6.20;99.90;;;;;;5009518;28;20045;-62
2022/01/09 11:23:49;;;;;;;14.07;2.63;;;6.20;99.90;;;;;;5009466;28;20065;-61
2022/01/09 11:26:16;;;;;;;13.50;2.38;;;6.20;99.90;;;;;;5009428;28;20472;-61
2022/01/09 11:28:50;;;;;;;12.10;2.33;;;6.20;99.90;;;;;;5009588;28;20063;-61
2022/01/09 11:31:37;;;;;;;9.30;1.92;;;6.20;99.90;;;;;;5009234;28;20567;-62
2022/01/09 11:34:23;;;;;;;12.60;2.10;;;6.20;99.90;;;;;;5009400;28;20046;-61
2022/01/09 11:36:49;;;;;;;12.48;1.90;;;6.20;99.90;;;;;;5009636;28;20046;-61
2022/01/09 11:39:23;;;;;;;13.15;2.15;;;6.20;99.90;;;;;;5009259;28;20158;-62
2022/01/09 11:42:07;;;;;;;10.32;2.00;;;6.30;99.90;;;;;;5009131;28;20089;-61
2022/01/09 11:44:32;;;;;;;9.88;2.03;;;6.50;99.90;;;;;;5009156;28;20052;-61
2022/01/09 11:47:04;;;;;;;9.95;2.10;;;6.60;99.90;;;;;;5009263;28;20466;-61
2022/01/09 11:49:38;;;;;;;13.65;2.38;;;6.70;99.90;;;;;;5009277;28;20121;-61
2022/01/09 11:52:05;;;;;;;12.93;2.65;;;6.70;99.90;;;;;;5009220;28;20042;-61
2022/01/09 11:54:50;;;;;;;11.98;3.10;;;6.70;99.90;;;;;;5008919;28;20465;-61
2022/01/09 11:57:33;;;;;;;17.02;2.38;;;6.70;99.90;;;;;;5008949;28;20042;-61
2022/01/09 11:59:58;;;;;;;13.07;2.20;;;6.80;99.90;;;;;;5009185;28;20050;-61
2022/01/09 12:02:27;;;;;;;21.15;2.95;;;6.90;99.90;;;;;;5008998;28;20049;-62
2022/01/09 12:04:54;;;;;;;13.05;2.30;;;7.00;99.90;;;;;;5012665;28;20042;-61
2022/01/09 12:07:32;;;;;;;15.05;2.80;;;7.10;99.90;;;;;;5012462;28;20113;-62
2022/01/09 12:09:59;;;;;;;14.77;3.53;;;7.20;99.90;;;;;;5012348;28;20468;-61
2022/01/09 12:12:35;;;;;;;15.90;2.42;;;7.30;99.90;;;;;;5012582;28;20091;-62
2022/01/09 12:15:05;;;;;;;11.18;2.13;;;7.30;99.90;;;;;;5012398;28;20038;-62
2022/01/09 12:17:38;;;;;;;17.13;2.20;;;7.30;99.90;;;;;;5012426;28;20052;-62
2022/01/09 12:20:13;;;;;;;11.40;2.88;;;7.30;99.90;;;;;;5012275;28;20041;-61
2022/01/09 12:22:50;;;;;;;11.27;2.42;;;7.30;99.90;;;;;;5012557;28;20488;-61
2022/01/09 12:25:22;;;;;;;15.88;2.35;;;7.30;99.90;;;;;;5011073;28;20054;-61
2022/01/09 12:28:06;;;;;;;12.20;2.50;;;7.30;99.90;;;;;;5012210;28;20045;-61
2022/01/09 12:30:44;;;;;;;12.65;2.45;;;7.40;99.90;;;;;;5012098;28;20075;-62
2022/01/09 12:33:12;;;;;;;14.57;2.78;;;7.30;99.90;;;;;;5012323;28;20042;-62
2022/01/09 12:35:41;;;;;;;17.33;3.50;;;7.30;99.90;;;;;;5012263;28;20046;-62
2022/01/09 12:38:13;;;;;;;14.93;2.55;;;7.30;99.90;;;;;;5011958;28;20041;-61
2022/01/09 12:40:40;;;;;;;15.88;3.30;;;7.30;99.90;;;;;;5012047;28;20086;-62
2022/01/09 12:43:07;;;;;;;9.85;2.10;;;7.40;99.90;;;;;;5011712;28;20045;-62
2022/01/09 12:45:40;;;;;;;13.30;2.35;;;7.50;99.90;;;;;;5012166;28;20034;-62
2022/01/09 12:48:06;;;;;;;10.80;2.30;;;7.50;99.90;;;;;;5012011;28;20038;-62